sensor_id;sensor_type;location;lat;lon;timestamp;temperature;humidity
61807;DHT22;47726;52.766;6.606;2023-04-28T00:01:41;9.10;99.90
61807;DHT22;47726;52.766;6.606;2023-04-28T00:04:07;9.10;99.90
61807;DHT22;47726;52.766;6.606;2023-04-28T00:06:32;9.10;99.90
61807;DHT22;47726;52.766;6.606;2023-04-28T00:08:58;9.00;99.90
61807;DHT22;47726;52.766;6.606;2023-04-28T00:11:24;9.00;99.90
61807;DHT22;47726;52.766;6.606;2023-04-28T00:13:50;9.00;99.90
61807;DHT22;47726;52.766;6.606;2023-04-28T00:16:16;9.00;99.90
61807;DHT22;47726;52.766;6.606;2023-04-28T00:18:41;9.00;99.90
61807;DHT22;47726;52.766;6.606;2023-04-28T00:21:07;9.00;99.90
61807;DHT22;47726;52.766;6.606;2023-04-28T00:23:33;8.90;99.90
61807;DHT22;47726;52.766;6.606;2023-04-28T00:25:58;8.90;99.90
61807;DHT22;47726;52.766;6.606;2023-04-28T00:28:24;8.90;99.90
61807;DHT22;47726;52.766;6.606;2023-04-28T00:30:49;8.90;99.90
61807;DHT22;47726;52.766;6.606;2023-04-28T00:33:15;8.90;99.90
61807;DHT22;47726;52.766;6.606;2023-04-28T00:35:41;8.90;99.90
61807;DHT22;47726;52.766;6.606;2023-04-28T00:38:07;8.90;99.90
61807;DHT22;47726;52.766;6.606;2023-04-28T00:40:34;8.80;99.90
61807;DHT22;47726;52.766;6.606;2023-04-28T00:42:59;8.90;99.90
61807;DHT22;47726;52.766;6.606;2023-04-28T00:45:25;8.80;99.90
61807;DHT22;47726;52.766;6.606;2023-04-28T00:47:51;8.80;99.90
61807;DHT22;47726;52.766;6.606;2023-04-28T00:50:17;8.80;99.90
61807;DHT22;47726;52.766;6.606;2023-04-28T00:52:42;8.70;99.90
61807;DHT22;47726;52.766;6.606;2023-04-28T00:55:08;8.70;99.90
61807;DHT22;47726;52.766;6.606;2023-04-28T00:57:35;8.70;99.90
61807;DHT22;47726;52.766;6.606;2023-04-28T01:00:01;8.70;99.90
61807;DHT22;47726;52.766;6.606;2023-04-28T01:02:27;8.70;99.90
61807;DHT22;47726;52.766;6.606;2023-04-28T01:04:55;8.70;99.90
61807;DHT22;47726;52.766;6.606;2023-04-28T01:07:21;8.60;99.90
61807;DHT22;47726;52.766;6.606;2023-04-28T01:09:47;8.60;99.90
61807;DHT22;47726;52.766;6.606;2023-04-28T01:12:12;8.60;99.90
61807;DHT22;47726;52.766;6.606;2023-04-28T01:14:38;8.60;99.90
61807;DHT22;47726;52.766;6.606;2023-04-28T01:17:04;8.60;99.90
61807;DHT22;47726;52.766;6.606;2023-04-28T01:19:30;8.60;99.90
61807;DHT22;47726;52.766;6.606;2023-04-28T01:21:56;8.60;99.90
61807;DHT22;47726;52.766;6.606;2023-04-28T01:24:21;8.60;99.90
61807;DHT22;47726;52.766;6.606;2023-04-28T01:26:47;8.60;99.90
61807;DHT22;47726;52.766;6.606;2023-04-28T01:29:12;8.50;99.90
61807;DHT22;47726;52.766;6.606;2023-04-28T01:31:38;8.50;99.90
61807;DHT22;47726;52.766;6.606;2023-04-28T01:34:04;8.50;99.90
61807;DHT22;47726;52.766;6.606;2023-04-28T01:36:29;8.50;99.90
61807;DHT22;47726;52.766;6.606;2023-04-28T01:38:55;8.50;99.90
61807;DHT22;47726;52.766;6.606;2023-04-28T01:41:20;8.50;99.90
61807;DHT22;47726;52.766;6.606;2023-04-28T01:43:46;8.50;99.90
61807;DHT22;47726;52.766;6.606;2023-04-28T01:46:12;8.40;99.90
61807;DHT22;47726;52.766;6.606;2023-04-28T01:48:37;8.50;99.90
61807;DHT22;47726;52.766;6.606;2023-04-28T01:51:03;8.50;99.90
61807;DHT22;47726;52.766;6.606;2023-04-28T01:53:29;8.50;99.90
61807;DHT22;47726;52.766;6.606;2023-04-28T01:55:55;8.40;99.90
61807;DHT22;47726;52.766;6.606;2023-04-28T01:58:23;8.40;99.90
61807;DHT22;47726;52.766;6.606;2023-04-28T02:00:49;8.40;99.90
61807;DHT22;47726;52.766;6.606;2023-04-28T02:03:14;8.40;99.90
61807;DHT22;47726;52.766;6.606;2023-04-28T02:05:40;8.40;99.90
61807;DHT22;47726;52.766;6.606;2023-04-28T02:08:05;8.40;99.90
61807;DHT22;47726;52.766;6.606;2023-04-28T02:10:31;8.40;99.90
61807;DHT22;47726;52.766;6.606;2023-04-28T02:12:57;8.40;99.90
61807;DHT22;47726;52.766;6.606;2023-04-28T02:15:22;8.40;99.90
61807;DHT22;47726;52.766;6.606;2023-04-28T02:17:48;8.40;99.90
61807;DHT22;47726;52.766;6.606;2023-04-28T02:20:14;8.40;99.90
61807;DHT22;47726;52.766;6.606;2023-04-28T02:22:40;8.30;99.90
61807;DHT22;47726;52.766;6.606;2023-04-28T02:25:06;8.30;99.90
61807;DHT22;47726;52.766;6.606;2023-04-28T02:27:33;8.30;99.90
61807;DHT22;47726;52.766;6.606;2023-04-28T02:29:59;8.30;99.90
61807;DHT22;47726;52.766;6.606;2023-04-28T02:32:25;8.30;99.90
61807;DHT22;47726;52.766;6.606;2023-04-28T02:34:54;8.30;99.90
61807;DHT22;47726;52.766;6.606;2023-04-28T02:37:20;8.30;99.90
61807;DHT22;47726;52.766;6.606;2023-04-28T02:39:46;8.30;99.90
61807;DHT22;47726;52.766;6.606;2023-04-28T02:42:12;8.30;99.90
61807;DHT22;47726;52.766;6.606;2023-04-28T02:44:37;8.30;99.90
61807;DHT22;47726;52.766;6.606;2023-04-28T02:47:03;8.30;99.90
61807;DHT22;47726;52.766;6.606;2023-04-28T02:49:28;8.30;99.90
61807;DHT22;47726;52.766;6.606;2023-04-28T02:51:55;8.30;99.90
61807;DHT22;47726;52.766;6.606;2023-04-28T02:54:20;8.20;99.90
61807;DHT22;47726;52.766;6.606;2023-04-28T02:56:53;8.20;99.90
61807;DHT22;47726;52.766;6.606;2023-04-28T02:59:19;8.20;99.90
61807;DHT22;47726;52.766;6.606;2023-04-28T03:01:45;8.20;99.90
61807;DHT22;47726;52.766;6.606;2023-04-28T03:04:10;8.20;99.90
61807;DHT22;47726;52.766;6.606;2023-04-28T03:06:36;8.20;99.90
61807;DHT22;47726;52.766;6.606;2023-04-28T03:09:02;8.20;99.90
61807;DHT22;47726;52.766;6.606;2023-04-28T03:11:28;8.20;99.90
61807;DHT22;47726;52.766;6.606;2023-04-28T03:13:54;8.20;99.90
61807;DHT22;47726;52.766;6.606;2023-04-28T03:16:19;8.20;99.90
61807;DHT22;47726;52.766;6.606;2023-04-28T03:18:45;8.20;99.90
61807;DHT22;47726;52.766;6.606;2023-04-28T03:21:10;8.20;99.90
61807;DHT22;47726;52.766;6.606;2023-04-28T03:23:36;8.20;99.90
61807;DHT22;47726;52.766;6.606;2023-04-28T03:26:02;8.20;99.90
61807;DHT22;47726;52.766;6.606;2023-04-28T03:28:27;8.20;99.90
61807;DHT22;47726;52.766;6.606;2023-04-28T03:30:53;8.10;99.90
61807;DHT22;47726;52.766;6.606;2023-04-28T03:33:19;8.20;99.90
61807;DHT22;47726;52.766;6.606;2023-04-28T03:35:45;8.10;99.90
61807;DHT22;47726;52.766;6.606;2023-04-28T03:38:10;8.20;99.90
61807;DHT22;47726;52.766;6.606;2023-04-28T03:40:36;8.10;99.90
61807;DHT22;47726;52.766;6.606;2023-04-28T03:43:02;8.10;99.90
61807;DHT22;47726;52.766;6.606;2023-04-28T03:45:27;8.10;99.90
61807;DHT22;47726;52.766;6.606;2023-04-28T03:47:53;8.10;99.90
61807;DHT22;47726;52.766;6.606;2023-04-28T03:50:19;8.10;99.90
61807;DHT22;47726;52.766;6.606;2023-04-28T03:52:44;8.10;99.90
61807;DHT22;47726;52.766;6.606;2023-04-28T03:55:10;8.10;99.90
61807;DHT22;47726;52.766;6.606;2023-04-28T03:57:36;8.10;99.90
61807;DHT22;47726;52.766;6.606;2023-04-28T04:00:03;8.10;99.90
61807;DHT22;47726;52.766;6.606;2023-04-28T04:02:28;8.10;99.90
61807;DHT22;47726;52.766;6.606;2023-04-28T04:04:54;8.10;99.90
61807;DHT22;47726;52.766;6.606;2023-04-28T04:07:21;8.10;99.90
61807;DHT22;47726;52.766;6.606;2023-04-28T04:09:47;8.00;99.90
61807;DHT22;47726;52.766;6.606;2023-04-28T04:12:12;8.00;99.90
61807;DHT22;47726;52.766;6.606;2023-04-28T04:14:38;8.10;99.90
61807;DHT22;47726;52.766;6.606;2023-04-28T04:17:03;8.10;99.90
61807;DHT22;47726;52.766;6.606;2023-04-28T04:19:29;8.00;99.90
61807;DHT22;47726;52.766;6.606;2023-04-28T04:21:55;8.00;99.90
61807;DHT22;47726;52.766;6.606;2023-04-28T04:24:20;8.00;99.90
61807;DHT22;47726;52.766;6.606;2023-04-28T04:26:46;8.00;99.90
61807;DHT22;47726;52.766;6.606;2023-04-28T04:29:12;8.00;99.90
61807;DHT22;47726;52.766;6.606;2023-04-28T04:31:37;8.00;99.90
61807;DHT22;47726;52.766;6.606;2023-04-28T04:34:03;8.00;99.90
61807;DHT22;47726;52.766;6.606;2023-04-28T04:36:29;8.00;99.90
61807;DHT22;47726;52.766;6.606;2023-04-28T04:38:54;8.00;99.90
61807;DHT22;47726;52.766;6.606;2023-04-28T04:41:20;8.00;99.90
61807;DHT22;47726;52.766;6.606;2023-04-28T04:43:46;8.00;99.90
61807;DHT22;47726;52.766;6.606;2023-04-28T04:46:12;8.00;99.90
61807;DHT22;47726;52.766;6.606;2023-04-28T04:48:38;8.00;99.90
61807;DHT22;47726;52.766;6.606;2023-04-28T04:51:03;8.00;99.90
61807;DHT22;47726;52.766;6.606;2023-04-28T04:53:29;8.00;99.90
61807;DHT22;47726;52.766;6.606;2023-04-28T04:55:54;8.00;99.90
61807;DHT22;47726;52.766;6.606;2023-04-28T04:58:20;8.00;99.90
61807;DHT22;47726;52.766;6.606;2023-04-28T05:00:46;8.00;99.90
61807;DHT22;47726;52.766;6.606;2023-04-28T05:03:11;8.00;99.90
61807;DHT22;47726;52.766;6.606;2023-04-28T05:05:37;8.00;99.90
61807;DHT22;47726;52.766;6.606;2023-04-28T05:08:03;8.00;99.90
61807;DHT22;47726;52.766;6.606;2023-04-28T05:10:30;8.10;99.90
61807;DHT22;47726;52.766;6.606;2023-04-28T05:12:55;8.00;99.90
61807;DHT22;47726;52.766;6.606;2023-04-28T05:15:21;8.10;99.90
61807;DHT22;47726;52.766;6.606;2023-04-28T05:17:46;8.10;99.90
61807;DHT22;47726;52.766;6.606;2023-04-28T05:20:12;8.10;99.90
61807;DHT22;47726;52.766;6.606;2023-04-28T05:22:38;8.10;99.90
61807;DHT22;47726;52.766;6.606;2023-04-28T05:25:03;8.10;99.90
61807;DHT22;47726;52.766;6.606;2023-04-28T05:27:29;8.10;99.90
61807;DHT22;47726;52.766;6.606;2023-04-28T05:29:55;8.10;99.90
61807;DHT22;47726;52.766;6.606;2023-04-28T05:32:20;8.10;99.90
61807;DHT22;47726;52.766;6.606;2023-04-28T05:34:46;8.20;99.90
61807;DHT22;47726;52.766;6.606;2023-04-28T05:37:11;8.20;99.90
61807;DHT22;47726;52.766;6.606;2023-04-28T05:39:37;8.20;99.90
61807;DHT22;47726;52.766;6.606;2023-04-28T05:42:03;8.20;99.90
61807;DHT22;47726;52.766;6.606;2023-04-28T05:44:30;8.10;99.90
61807;DHT22;47726;52.766;6.606;2023-04-28T05:46:55;8.20;99.90
61807;DHT22;47726;52.766;6.606;2023-04-28T05:49:21;8.20;99.90
61807;DHT22;47726;52.766;6.606;2023-04-28T05:51:47;8.20;99.90
61807;DHT22;47726;52.766;6.606;2023-04-28T05:54:12;8.20;99.90
61807;DHT22;47726;52.766;6.606;2023-04-28T05:56:38;8.20;99.90
61807;DHT22;47726;52.766;6.606;2023-04-28T05:59:04;8.20;99.90
61807;DHT22;47726;52.766;6.606;2023-04-28T06:01:32;8.20;99.90
61807;DHT22;47726;52.766;6.606;2023-04-28T06:03:58;8.20;99.90
61807;DHT22;47726;52.766;6.606;2023-04-28T06:06:24;8.20;99.90
61807;DHT22;47726;52.766;6.606;2023-04-28T06:08:50;8.20;99.90
61807;DHT22;47726;52.766;6.606;2023-04-28T06:11:16;8.20;99.90
61807;DHT22;47726;52.766;6.606;2023-04-28T06:13:43;8.20;99.90
61807;DHT22;47726;52.766;6.606;2023-04-28T06:16:09;8.30;99.90
61807;DHT22;47726;52.766;6.606;2023-04-28T06:18:34;8.30;99.90
61807;DHT22;47726;52.766;6.606;2023-04-28T06:21:00;8.30;99.90
61807;DHT22;47726;52.766;6.606;2023-04-28T06:23:26;8.30;99.90
61807;DHT22;47726;52.766;6.606;2023-04-28T06:25:51;8.30;99.90
61807;DHT22;47726;52.766;6.606;2023-04-28T06:28:17;8.30;99.90
61807;DHT22;47726;52.766;6.606;2023-04-28T06:30:43;8.30;99.90
61807;DHT22;47726;52.766;6.606;2023-04-28T06:33:08;8.40;99.90
61807;DHT22;47726;52.766;6.606;2023-04-28T06:35:34;8.40;99.90
61807;DHT22;47726;52.766;6.606;2023-04-28T06:38:01;8.40;99.90
61807;DHT22;47726;52.766;6.606;2023-04-28T06:40:28;8.40;99.90
61807;DHT22;47726;52.766;6.606;2023-04-28T06:42:53;8.40;99.90
61807;DHT22;47726;52.766;6.606;2023-04-28T06:45:19;8.40;99.90
61807;DHT22;47726;52.766;6.606;2023-04-28T06:47:45;8.50;99.90
61807;DHT22;47726;52.766;6.606;2023-04-28T06:50:11;8.50;99.90
61807;DHT22;47726;52.766;6.606;2023-04-28T06:52:36;8.50;99.90
61807;DHT22;47726;52.766;6.606;2023-04-28T06:55:04;8.50;99.90
61807;DHT22;47726;52.766;6.606;2023-04-28T06:57:30;8.50;99.90
61807;DHT22;47726;52.766;6.606;2023-04-28T06:59:56;8.50;99.90
61807;DHT22;47726;52.766;6.606;2023-04-28T07:02:21;8.50;99.90
61807;DHT22;47726;52.766;6.606;2023-04-28T07:04:47;8.60;99.90
61807;DHT22;47726;52.766;6.606;2023-04-28T07:07:13;8.60;99.90
61807;DHT22;47726;52.766;6.606;2023-04-28T07:09:39;8.60;99.90
61807;DHT22;47726;52.766;6.606;2023-04-28T07:12:05;8.60;99.90
61807;DHT22;47726;52.766;6.606;2023-04-28T07:14:30;8.70;99.90
61807;DHT22;47726;52.766;6.606;2023-04-28T07:16:56;8.70;99.90
61807;DHT22;47726;52.766;6.606;2023-04-28T07:19:22;8.80;99.90
61807;DHT22;47726;52.766;6.606;2023-04-28T07:21:47;8.80;99.90
61807;DHT22;47726;52.766;6.606;2023-04-28T07:24:13;8.90;99.90
61807;DHT22;47726;52.766;6.606;2023-04-28T07:26:38;8.90;99.90
61807;DHT22;47726;52.766;6.606;2023-04-28T07:29:04;8.90;99.90
61807;DHT22;47726;52.766;6.606;2023-04-28T07:31:29;9.00;99.90
61807;DHT22;47726;52.766;6.606;2023-04-28T07:33:55;9.00;99.90
61807;DHT22;47726;52.766;6.606;2023-04-28T07:36:21;9.00;99.90
61807;DHT22;47726;52.766;6.606;2023-04-28T07:38:46;9.10;99.90
61807;DHT22;47726;52.766;6.606;2023-04-28T07:41:12;9.10;99.90
61807;DHT22;47726;52.766;6.606;2023-04-28T07:43:38;9.20;99.90
61807;DHT22;47726;52.766;6.606;2023-04-28T07:46:05;9.20;99.90
61807;DHT22;47726;52.766;6.606;2023-04-28T07:48:30;9.30;99.90
61807;DHT22;47726;52.766;6.606;2023-04-28T07:50:56;9.30;99.90
61807;DHT22;47726;52.766;6.606;2023-04-28T07:53:22;9.40;99.90
61807;DHT22;47726;52.766;6.606;2023-04-28T07:55:48;9.50;99.90
61807;DHT22;47726;52.766;6.606;2023-04-28T07:58:13;9.60;99.90
61807;DHT22;47726;52.766;6.606;2023-04-28T08:00:39;9.60;99.90
61807;DHT22;47726;52.766;6.606;2023-04-28T08:03:05;9.70;99.90
61807;DHT22;47726;52.766;6.606;2023-04-28T08:05:30;9.70;99.90
61807;DHT22;47726;52.766;6.606;2023-04-28T08:07:56;9.70;99.90
61807;DHT22;47726;52.766;6.606;2023-04-28T08:10:23;9.70;99.90
61807;DHT22;47726;52.766;6.606;2023-04-28T08:12:51;9.80;99.90
61807;DHT22;47726;52.766;6.606;2023-04-28T08:15:16;9.80;99.90
61807;DHT22;47726;52.766;6.606;2023-04-28T08:17:42;9.80;99.90
61807;DHT22;47726;52.766;6.606;2023-04-28T08:20:08;9.80;99.90
61807;DHT22;47726;52.766;6.606;2023-04-28T08:22:33;9.90;99.90
61807;DHT22;47726;52.766;6.606;2023-04-28T08:24:59;9.90;99.90
61807;DHT22;47726;52.766;6.606;2023-04-28T08:27:25;9.90;99.90
61807;DHT22;47726;52.766;6.606;2023-04-28T08:29:51;10.00;99.90
61807;DHT22;47726;52.766;6.606;2023-04-28T08:32:17;10.10;99.90
61807;DHT22;47726;52.766;6.606;2023-04-28T08:34:43;10.10;99.90
61807;DHT22;47726;52.766;6.606;2023-04-28T08:37:08;10.20;99.90
61807;DHT22;47726;52.766;6.606;2023-04-28T08:39:34;10.20;99.90
61807;DHT22;47726;52.766;6.606;2023-04-28T08:42:03;10.30;99.90
61807;DHT22;47726;52.766;6.606;2023-04-28T08:44:37;10.30;99.90
61807;DHT22;47726;52.766;6.606;2023-04-28T08:47:11;10.30;99.90
61807;DHT22;47726;52.766;6.606;2023-04-28T08:49:39;10.40;99.90
61807;DHT22;47726;52.766;6.606;2023-04-28T08:52:15;10.40;99.90
61807;DHT22;47726;52.766;6.606;2023-04-28T08:54:41;10.40;99.90
61807;DHT22;47726;52.766;6.606;2023-04-28T08:57:08;10.50;99.90
61807;DHT22;47726;52.766;6.606;2023-04-28T08:59:38;10.60;99.90
61807;DHT22;47726;52.766;6.606;2023-04-28T09:02:04;10.70;99.90
61807;DHT22;47726;52.766;6.606;2023-04-28T09:04:30;10.80;99.90
61807;DHT22;47726;52.766;6.606;2023-04-28T09:06:55;11.00;99.90
61807;DHT22;47726;52.766;6.606;2023-04-28T09:09:24;11.20;99.90
61807;DHT22;47726;52.766;6.606;2023-04-28T09:11:51;11.30;99.90
61807;DHT22;47726;52.766;6.606;2023-04-28T09:14:17;11.40;99.90
61807;DHT22;47726;52.766;6.606;2023-04-28T09:16:43;11.60;99.90
61807;DHT22;47726;52.766;6.606;2023-04-28T09:19:09;11.60;99.90
61807;DHT22;47726;52.766;6.606;2023-04-28T09:21:55;11.70;99.90
61807;DHT22;47726;52.766;6.606;2023-04-28T09:24:35;11.70;99.90
61807;DHT22;47726;52.766;6.606;2023-04-28T09:27:05;11.80;99.90
61807;DHT22;47726;52.766;6.606;2023-04-28T09:29:32;11.80;99.90
61807;DHT22;47726;52.766;6.606;2023-04-28T09:32:14;11.80;99.90
61807;DHT22;47726;52.766;6.606;2023-04-28T09:34:53;11.80;99.90
61807;DHT22;47726;52.766;6.606;2023-04-28T09:37:22;11.90;99.90
61807;DHT22;47726;52.766;6.606;2023-04-28T09:39:50;11.90;99.90
61807;DHT22;47726;52.766;6.606;2023-04-28T09:42:41;11.90;99.90
61807;DHT22;47726;52.766;6.606;2023-04-28T09:45:14;12.00;99.90
61807;DHT22;47726;52.766;6.606;2023-04-28T09:47:41;12.00;99.90
61807;DHT22;47726;52.766;6.606;2023-04-28T09:50:09;12.10;99.90
61807;DHT22;47726;52.766;6.606;2023-04-28T09:52:37;12.10;99.90
61807;DHT22;47726;52.766;6.606;2023-04-28T09:55:04;12.20;99.90
61807;DHT22;47726;52.766;6.606;2023-04-28T09:57:32;12.20;99.90
61807;DHT22;47726;52.766;6.606;2023-04-28T09:59:58;12.20;99.90
61807;DHT22;47726;52.766;6.606;2023-04-28T10:02:24;12.30;99.90
61807;DHT22;47726;52.766;6.606;2023-04-28T10:04:51;12.40;99.90
61807;DHT22;47726;52.766;6.606;2023-04-28T10:07:18;12.60;99.90
61807;DHT22;47726;52.766;6.606;2023-04-28T10:09:49;12.80;99.90
61807;DHT22;47726;52.766;6.606;2023-04-28T10:12:22;13.00;99.90
61807;DHT22;47726;52.766;6.606;2023-04-28T10:14:49;13.20;99.90
61807;DHT22;47726;52.766;6.606;2023-04-28T10:17:16;13.40;99.90
61807;DHT22;47726;52.766;6.606;2023-04-28T10:19:43;13.60;99.90
61807;DHT22;47726;52.766;6.606;2023-04-28T10:22:28;13.70;99.90
61807;DHT22;47726;52.766;6.606;2023-04-28T10:27:44;14.00;99.90
61807;DHT22;47726;52.766;6.606;2023-04-28T10:30:17;14.20;99.90
61807;DHT22;47726;52.766;6.606;2023-04-28T10:32:43;14.40;99.90
61807;DHT22;47726;52.766;6.606;2023-04-28T10:38:14;14.60;99.90
61807;DHT22;47726;52.766;6.606;2023-04-28T10:40:40;14.70;99.90
61807;DHT22;47726;52.766;6.606;2023-04-28T10:43:08;14.70;99.90
61807;DHT22;47726;52.766;6.606;2023-04-28T10:48:22;14.70;99.90
61807;DHT22;47726;52.766;6.606;2023-04-28T10:56:17;14.50;99.90
61807;DHT22;47726;52.766;6.606;2023-04-28T10:58:45;14.50;99.90
61807;DHT22;47726;52.766;6.606;2023-04-28T11:06:42;14.50;99.90
61807;DHT22;47726;52.766;6.606;2023-04-28T11:12:02;14.50;99.90
61807;DHT22;47726;52.766;6.606;2023-04-28T11:16:59;14.50;99.90
61807;DHT22;47726;52.766;6.606;2023-04-28T11:21:54;14.50;99.90
61807;DHT22;47726;52.766;6.606;2023-04-28T11:24:23;14.40;99.90
61807;DHT22;47726;52.766;6.606;2023-04-28T11:26:54;14.50;99.90
61807;DHT22;47726;52.766;6.606;2023-04-28T11:29:34;14.50;99.90
61807;DHT22;47726;52.766;6.606;2023-04-28T11:32:01;14.50;99.90
61807;DHT22;47726;52.766;6.606;2023-04-28T11:34:27;14.50;99.90
61807;DHT22;47726;52.766;6.606;2023-04-28T11:36:53;14.50;99.90
61807;DHT22;47726;52.766;6.606;2023-04-28T11:39:34;14.60;99.90
61807;DHT22;47726;52.766;6.606;2023-04-28T11:42:01;14.60;99.90
61807;DHT22;47726;52.766;6.606;2023-04-28T11:44:29;14.60;99.90
61807;DHT22;47726;52.766;6.606;2023-04-28T11:46:59;14.60;99.90
61807;DHT22;47726;52.766;6.606;2023-04-28T11:49:26;14.50;99.90
61807;DHT22;47726;52.766;6.606;2023-04-28T11:52:06;14.60;99.90
61807;DHT22;47726;52.766;6.606;2023-04-28T11:54:32;14.60;99.90
61807;DHT22;47726;52.766;6.606;2023-04-28T11:56:58;14.50;99.90
61807;DHT22;47726;52.766;6.606;2023-04-28T11:59:27;14.50;99.90
61807;DHT22;47726;52.766;6.606;2023-04-28T12:01:58;14.50;99.90
61807;DHT22;47726;52.766;6.606;2023-04-28T12:04:35;14.50;99.90
61807;DHT22;47726;52.766;6.606;2023-04-28T12:07:11;14.40;99.90
61807;DHT22;47726;52.766;6.606;2023-04-28T12:12:46;14.40;99.90
61807;DHT22;47726;52.766;6.606;2023-04-28T12:15:11;14.40;99.90
61807;DHT22;47726;52.766;6.606;2023-04-28T12:17:41;14.40;99.90
61807;DHT22;47726;52.766;6.606;2023-04-28T12:20:08;14.40;99.90
61807;DHT22;47726;52.766;6.606;2023-04-28T12:22:45;14.40;99.90
61807;DHT22;47726;52.766;6.606;2023-04-28T12:25:13;14.40;99.90
61807;DHT22;47726;52.766;6.606;2023-04-28T12:27:57;14.40;99.90
61807;DHT22;47726;52.766;6.606;2023-04-28T12:30:23;14.40;99.90
61807;DHT22;47726;52.766;6.606;2023-04-28T12:32:49;14.40;99.90
61807;DHT22;47726;52.766;6.606;2023-04-28T12:35:15;14.30;99.90
61807;DHT22;47726;52.766;6.606;2023-04-28T12:37:43;14.30;99.90
61807;DHT22;47726;52.766;6.606;2023-04-28T12:40:09;14.30;99.90
61807;DHT22;47726;52.766;6.606;2023-04-28T12:42:36;14.30;99.90
61807;DHT22;47726;52.766;6.606;2023-04-28T12:45:02;14.30;99.90
61807;DHT22;47726;52.766;6.606;2023-04-28T12:47:28;14.20;99.90
61807;DHT22;47726;52.766;6.606;2023-04-28T12:49:53;14.20;99.90
61807;DHT22;47726;52.766;6.606;2023-04-28T12:52:19;14.20;99.90
61807;DHT22;47726;52.766;6.606;2023-04-28T12:54:45;14.20;99.90
61807;DHT22;47726;52.766;6.606;2023-04-28T12:57:15;14.20;99.90
61807;DHT22;47726;52.766;6.606;2023-04-28T12:59:42;14.20;99.90
61807;DHT22;47726;52.766;6.606;2023-04-28T13:02:08;14.20;99.90
61807;DHT22;47726;52.766;6.606;2023-04-28T13:04:34;14.20;99.90
61807;DHT22;47726;52.766;6.606;2023-04-28T13:07:00;14.20;99.90
61807;DHT22;47726;52.766;6.606;2023-04-28T13:09:26;14.10;99.90
61807;DHT22;47726;52.766;6.606;2023-04-28T13:11:52;14.10;99.90
61807;DHT22;47726;52.766;6.606;2023-04-28T13:14:21;14.10;99.90
61807;DHT22;47726;52.766;6.606;2023-04-28T13:16:47;14.10;99.90
61807;DHT22;47726;52.766;6.606;2023-04-28T13:19:13;14.10;99.90
61807;DHT22;47726;52.766;6.606;2023-04-28T13:21:43;14.00;99.90
61807;DHT22;47726;52.766;6.606;2023-04-28T13:24:09;14.00;99.90
61807;DHT22;47726;52.766;6.606;2023-04-28T13:26:35;14.00;99.90
61807;DHT22;47726;52.766;6.606;2023-04-28T13:29:02;14.00;99.90
61807;DHT22;47726;52.766;6.606;2023-04-28T13:31:29;14.00;99.90
61807;DHT22;47726;52.766;6.606;2023-04-28T13:33:55;14.00;99.90
61807;DHT22;47726;52.766;6.606;2023-04-28T13:36:20;14.00;99.90
61807;DHT22;47726;52.766;6.606;2023-04-28T13:38:46;14.00;99.90
61807;DHT22;47726;52.766;6.606;2023-04-28T13:41:14;14.00;99.90
61807;DHT22;47726;52.766;6.606;2023-04-28T13:43:40;14.00;99.90
61807;DHT22;47726;52.766;6.606;2023-04-28T13:46:06;14.00;99.90
61807;DHT22;47726;52.766;6.606;2023-04-28T13:48:33;14.00;99.90
61807;DHT22;47726;52.766;6.606;2023-04-28T13:51:00;14.00;99.90
61807;DHT22;47726;52.766;6.606;2023-04-28T13:53:26;14.00;99.90
61807;DHT22;47726;52.766;6.606;2023-04-28T13:55:55;14.00;99.90
61807;DHT22;47726;52.766;6.606;2023-04-28T13:58:28;14.00;99.90
61807;DHT22;47726;52.766;6.606;2023-04-28T14:00:54;14.00;99.90
61807;DHT22;47726;52.766;6.606;2023-04-28T14:03:22;14.00;99.90
61807;DHT22;47726;52.766;6.606;2023-04-28T14:05:53;14.00;99.90
61807;DHT22;47726;52.766;6.606;2023-04-28T14:08:20;14.00;99.90
61807;DHT22;47726;52.766;6.606;2023-04-28T14:10:48;14.00;99.90
61807;DHT22;47726;52.766;6.606;2023-04-28T14:13:14;14.00;99.90
61807;DHT22;47726;52.766;6.606;2023-04-28T14:15:40;14.00;99.90
61807;DHT22;47726;52.766;6.606;2023-04-28T14:18:07;14.00;99.90
61807;DHT22;47726;52.766;6.606;2023-04-28T14:20:34;14.10;99.90
61807;DHT22;47726;52.766;6.606;2023-04-28T14:23:00;14.00;99.90
61807;DHT22;47726;52.766;6.606;2023-04-28T14:25:26;14.00;99.90
61807;DHT22;47726;52.766;6.606;2023-04-28T14:27:51;14.00;99.90
61807;DHT22;47726;52.766;6.606;2023-04-28T14:30:18;14.00;99.90
61807;DHT22;47726;52.766;6.606;2023-04-28T14:32:44;14.00;99.90
61807;DHT22;47726;52.766;6.606;2023-04-28T14:35:11;14.00;99.90
61807;DHT22;47726;52.766;6.606;2023-04-28T14:37:38;14.00;99.90
61807;DHT22;47726;52.766;6.606;2023-04-28T14:40:04;14.00;99.90
61807;DHT22;47726;52.766;6.606;2023-04-28T14:42:32;14.00;99.90
61807;DHT22;47726;52.766;6.606;2023-04-28T14:45:01;14.00;99.90
61807;DHT22;47726;52.766;6.606;2023-04-28T14:47:27;14.00;99.90
61807;DHT22;47726;52.766;6.606;2023-04-28T14:49:52;14.00;99.90
61807;DHT22;47726;52.766;6.606;2023-04-28T14:52:20;14.00;99.90
61807;DHT22;47726;52.766;6.606;2023-04-28T14:54:50;14.00;99.90
61807;DHT22;47726;52.766;6.606;2023-04-28T14:57:16;14.00;99.90
61807;DHT22;47726;52.766;6.606;2023-04-28T14:59:42;14.00;99.90
61807;DHT22;47726;52.766;6.606;2023-04-28T15:02:08;14.00;99.90
61807;DHT22;47726;52.766;6.606;2023-04-28T15:04:34;14.00;99.90
61807;DHT22;47726;52.766;6.606;2023-04-28T15:07:00;14.00;99.90
61807;DHT22;47726;52.766;6.606;2023-04-28T15:09:26;14.00;99.90
61807;DHT22;47726;52.766;6.606;2023-04-28T15:11:52;14.00;99.90
61807;DHT22;47726;52.766;6.606;2023-04-28T15:14:18;14.00;99.90
61807;DHT22;47726;52.766;6.606;2023-04-28T15:16:44;14.00;99.90
61807;DHT22;47726;52.766;6.606;2023-04-28T15:19:11;14.10;99.90
61807;DHT22;47726;52.766;6.606;2023-04-28T15:21:37;14.10;99.90
61807;DHT22;47726;52.766;6.606;2023-04-28T15:24:03;14.10;99.90
61807;DHT22;47726;52.766;6.606;2023-04-28T15:26:29;14.10;99.90
61807;DHT22;47726;52.766;6.606;2023-04-28T15:28:54;14.10;99.90
61807;DHT22;47726;52.766;6.606;2023-04-28T15:31:20;14.10;99.90
61807;DHT22;47726;52.766;6.606;2023-04-28T15:33:50;14.10;99.90
61807;DHT22;47726;52.766;6.606;2023-04-28T15:36:16;14.00;99.90
61807;DHT22;47726;52.766;6.606;2023-04-28T15:38:43;14.00;99.90
61807;DHT22;47726;52.766;6.606;2023-04-28T15:41:10;14.00;99.90
61807;DHT22;47726;52.766;6.606;2023-04-28T15:43:36;14.00;99.90
61807;DHT22;47726;52.766;6.606;2023-04-28T15:46:02;14.00;99.90
61807;DHT22;47726;52.766;6.606;2023-04-28T15:48:28;14.00;99.90
61807;DHT22;47726;52.766;6.606;2023-04-28T15:50:54;14.00;99.90
61807;DHT22;47726;52.766;6.606;2023-04-28T15:53:20;14.00;99.90
61807;DHT22;47726;52.766;6.606;2023-04-28T15:55:47;14.00;99.90
61807;DHT22;47726;52.766;6.606;2023-04-28T15:58:12;14.00;99.90
61807;DHT22;47726;52.766;6.606;2023-04-28T16:00:38;14.00;99.90
61807;DHT22;47726;52.766;6.606;2023-04-28T16:03:05;14.00;99.90
61807;DHT22;47726;52.766;6.606;2023-04-28T16:05:31;14.00;99.90
61807;DHT22;47726;52.766;6.606;2023-04-28T16:07:56;14.00;99.90